createdAt,value
2018-10-17T00:01:21.124Z,87.37
2018-10-17T00:03:49.381Z,87.26
2018-10-17T00:06:17.765Z,87.68
2018-10-17T00:08:46.153Z,87.67
2018-10-17T00:11:14.465Z,88.00
2018-10-17T00:13:42.850Z,88.21
2018-10-17T00:16:11.204Z,88.95
2018-10-17T00:18:39.695Z,89.97
2018-10-17T00:21:08.061Z,90.67
2018-10-17T00:23:36.485Z,91.35
2018-10-17T00:26:05.326Z,90.98
2018-10-17T00:28:33.946Z,92.58
2018-10-17T00:31:02.576Z,93.21
2018-10-17T00:33:30.824Z,93.51
2018-10-17T00:35:59.275Z,93.80
2018-10-17T00:38:27.592Z,93.99
2018-10-17T00:40:55.945Z,93.83
2018-10-17T00:43:24.248Z,93.99
2018-10-17T00:45:52.509Z,93.71
2018-10-17T00:48:20.870Z,94.03
2018-10-17T00:50:49.098Z,94.37
2018-10-17T00:53:17.507Z,93.45
2018-10-17T00:55:45.806Z,93.66
2018-10-17T00:58:14.106Z,93.55
2018-10-17T01:00:42.350Z,93.47
2018-10-17T01:03:10.786Z,93.58
2018-10-17T01:05:39.256Z,93.89
2018-10-17T01:08:07.566Z,93.98
2018-10-17T01:10:35.969Z,93.84
2018-10-17T01:13:04.325Z,93.83
2018-10-17T01:15:32.604Z,93.28
2018-10-17T01:18:00.925Z,92.99
2018-10-17T01:20:29.381Z,93.27
2018-10-17T01:22:57.727Z,93.29
2018-10-17T01:25:26.013Z,93.09
2018-10-17T01:27:54.252Z,93.36
2018-10-17T01:30:22.493Z,93.65
2018-10-17T01:32:50.861Z,93.75
2018-10-17T01:35:19.145Z,93.39
2018-10-17T01:37:47.833Z,93.22
2018-10-17T01:40:16.145Z,93.82
2018-10-17T01:42:44.587Z,94.09
2018-10-17T01:45:12.900Z,93.96
2018-10-17T01:47:41.334Z,94.04
2018-10-17T01:50:10.028Z,94.12
2018-10-17T01:52:38.305Z,93.78
2018-10-17T01:55:07.355Z,93.76
2018-10-17T01:57:35.880Z,93.85
2018-10-17T02:00:04.313Z,94.63
2018-10-17T02:02:32.635Z,94.35
2018-10-17T02:05:01.146Z,94.61
2018-10-17T02:07:29.475Z,94.91
2018-10-17T02:09:58.254Z,94.96
2018-10-17T02:12:26.515Z,95.28
2018-10-17T02:14:54.759Z,95.29
2018-10-17T02:17:23.003Z,96.30
2018-10-17T02:19:51.389Z,96.46
2018-10-17T02:22:19.755Z,96.54
2018-10-17T02:24:48.129Z,97.06
2018-10-17T02:27:16.472Z,96.67
2018-10-17T02:29:45.083Z,97.18
2018-10-17T02:32:13.324Z,97.54
2018-10-17T02:34:46.962Z,97.59
2018-10-17T02:37:15.435Z,97.12
2018-10-17T02:39:43.775Z,97.48
2018-10-17T02:42:11.923Z,97.62
2018-10-17T02:44:40.262Z,97.68
2018-10-17T02:47:08.630Z,97.99
2018-10-17T02:49:36.936Z,98.32
2018-10-17T02:52:05.531Z,98.83
2018-10-17T02:54:34.112Z,99.26
2018-10-17T02:57:02.552Z,99.28
2018-10-17T02:59:30.868Z,99.81
2018-10-17T03:01:59.164Z,99.54
2018-10-17T03:04:27.504Z,99.67
2018-10-17T03:06:55.813Z,99.78
2018-10-17T03:09:24.107Z,99.15
2018-10-17T03:11:52.408Z,99.56
2018-10-17T03:14:20.676Z,99.06
2018-10-17T03:16:48.997Z,99.11
2018-10-17T03:19:17.362Z,99.02
2018-10-17T03:21:45.616Z,99.10
2018-10-17T03:24:13.912Z,98.77
2018-10-17T03:26:43.108Z,98.97
2018-10-17T03:29:11.495Z,98.95
2018-10-17T03:31:39.680Z,98.45
2018-10-17T03:34:08.008Z,98.62
2018-10-17T03:36:36.366Z,98.41
2018-10-17T03:39:07.028Z,98.22
2018-10-17T03:41:35.587Z,98.40
2018-10-17T03:44:03.820Z,98.09
2018-10-17T03:46:32.209Z,97.69
2018-10-17T03:49:00.510Z,97.48
2018-10-17T03:51:28.812Z,97.87
2018-10-17T03:53:57.255Z,97.65
2018-10-17T03:56:25.623Z,97.66
2018-10-17T03:58:54.155Z,98.04
2018-10-17T04:01:22.410Z,97.75
2018-10-17T04:03:50.736Z,97.69
2018-10-17T04:06:19.239Z,98.55
2018-10-17T04:08:47.530Z,98.84
2018-10-17T04:11:15.874Z,99.31
2018-10-17T04:13:44.176Z,98.81
2018-10-17T04:16:12.496Z,99.23
2018-10-17T04:18:40.824Z,98.98
2018-10-17T04:21:09.305Z,99.61
2018-10-17T04:23:37.868Z,100.00
2018-10-17T04:26:06.271Z,100.00
2018-10-17T04:28:34.714Z,100.00
2018-10-17T04:31:03.514Z,100.00
2018-10-17T04:33:31.888Z,100.00
2018-10-17T04:36:00.244Z,100.00
2018-10-17T04:38:28.581Z,100.00
2018-10-17T04:40:56.876Z,100.00
2018-10-17T04:43:25.168Z,100.00
2018-10-17T04:45:53.452Z,100.00
2018-10-17T04:48:21.928Z,100.00
2018-10-17T04:50:50.231Z,100.00
2018-10-17T04:53:18.559Z,100.00
2018-10-17T04:55:46.892Z,100.00
2018-10-17T04:58:15.308Z,100.00
2018-10-17T05:00:43.575Z,100.00
2018-10-17T05:03:12.010Z,100.00
2018-10-17T05:05:40.414Z,100.00
2018-10-17T05:08:09.210Z,100.00
2018-10-17T05:10:37.744Z,100.00
2018-10-17T05:13:06.507Z,100.00
2018-10-17T05:15:34.828Z,100.00
2018-10-17T05:18:03.121Z,100.00
2018-10-17T05:20:31.388Z,100.00
2018-10-17T05:22:59.769Z,100.00
2018-10-17T05:25:28.299Z,100.00
2018-10-17T05:27:56.610Z,97.96
2018-10-17T05:30:24.986Z,96.71
2018-10-17T05:32:53.396Z,96.74
2018-10-17T05:35:21.689Z,98.14
2018-10-17T05:37:50.263Z,98.95
2018-10-17T05:40:18.411Z,99.58
2018-10-17T05:42:46.759Z,100.00
2018-10-17T05:45:15.045Z,100.00
2018-10-17T05:47:43.535Z,100.00
2018-10-17T05:50:11.920Z,100.00
2018-10-17T05:52:40.187Z,100.00
2018-10-17T05:55:08.645Z,100.00
2018-10-17T05:57:36.805Z,100.00
2018-10-17T06:00:06.728Z,100.00
2018-10-17T06:02:36.432Z,100.00
2018-10-17T06:05:04.785Z,100.00
2018-10-17T06:07:33.074Z,100.00
2018-10-17T06:10:01.413Z,100.00
2018-10-17T06:12:29.680Z,100.00
2018-10-17T06:14:58.042Z,100.00
2018-10-17T06:17:26.442Z,100.00
2018-10-17T06:19:54.702Z,100.00
2018-10-17T06:22:23.045Z,100.00
2018-10-17T06:24:51.376Z,100.00
2018-10-17T06:27:19.661Z,99.86
2018-10-17T06:29:47.998Z,99.69
2018-10-17T06:32:16.504Z,99.56
2018-10-17T06:34:44.943Z,99.41
2018-10-17T06:37:13.499Z,99.12
2018-10-17T06:39:42.017Z,98.58
2018-10-17T06:42:10.283Z,97.74
2018-10-17T06:44:38.570Z,96.55
2018-10-17T06:47:07.050Z,95.97
2018-10-17T06:49:35.301Z,95.06
2018-10-17T06:52:03.615Z,95.11
2018-10-17T06:54:32.012Z,93.89
2018-10-17T06:57:00.254Z,92.96
2018-10-17T06:59:28.911Z,92.66
2018-10-17T07:01:57.335Z,92.64
2018-10-17T07:04:25.579Z,92.41
2018-10-17T07:06:53.966Z,91.38
2018-10-17T07:09:22.341Z,91.02
2018-10-17T07:11:50.862Z,90.18
2018-10-17T07:14:19.213Z,89.64
2018-10-17T07:16:47.539Z,89.06
2018-10-17T07:19:15.940Z,88.35
2018-10-17T07:21:44.157Z,87.22
2018-10-17T07:24:12.508Z,87.93
2018-10-17T07:26:41.001Z,86.60
2018-10-17T07:29:09.438Z,86.26
2018-10-17T07:31:37.657Z,85.15
2018-10-17T07:34:05.985Z,84.44
2018-10-17T07:36:34.228Z,82.16
2018-10-17T07:39:02.611Z,80.45
2018-10-17T07:41:31.090Z,79.63
2018-10-17T07:43:59.429Z,77.62
2018-10-17T07:46:27.744Z,76.32
2018-10-17T07:48:56.073Z,74.52
2018-10-17T07:51:24.376Z,73.77
2018-10-17T07:53:52.760Z,73.43
2018-10-17T07:56:21.508Z,72.31
2018-10-17T07:58:49.791Z,71.42
2018-10-17T08:01:18.100Z,71.63
2018-10-17T08:03:46.564Z,71.36
2018-10-17T08:06:14.907Z,70.43
2018-10-17T08:08:43.194Z,70.01
2018-10-17T08:11:11.569Z,69.40
2018-10-17T08:13:39.795Z,68.66
2018-10-17T08:16:08.184Z,68.29
2018-10-17T08:18:36.468Z,66.98
2018-10-17T08:21:05.048Z,65.49
2018-10-17T08:23:33.343Z,65.28
2018-10-17T08:26:01.620Z,64.65
2018-10-17T08:28:29.961Z,63.87
2018-10-17T08:30:58.338Z,62.95
2018-10-17T08:33:26.838Z,62.66
2018-10-17T08:35:55.444Z,61.80
2018-10-17T08:38:23.657Z,62.29
2018-10-17T08:40:52.042Z,60.80
2018-10-17T08:43:20.312Z,59.22
2018-10-17T08:45:48.756Z,59.71
2018-10-17T08:48:17.261Z,58.31
2018-10-17T08:50:45.681Z,57.81
2018-10-17T08:53:13.988Z,57.63
2018-10-17T08:55:42.311Z,57.63
2018-10-17T08:58:10.596Z,57.36
2018-10-17T09:00:38.929Z,56.46
2018-10-17T09:03:07.255Z,57.00
2018-10-17T09:05:35.576Z,55.33
2018-10-17T09:08:03.885Z,57.23
2018-10-17T09:10:32.214Z,54.80
2018-10-17T09:13:00.569Z,53.90
2018-10-17T09:15:28.944Z,55.11
2018-10-17T09:17:57.235Z,53.25
2018-10-17T09:20:25.595Z,53.14
2018-10-17T09:22:53.749Z,52.35
2018-10-17T09:25:22.139Z,54.01
2018-10-17T09:27:50.422Z,53.64
2018-10-17T09:30:18.924Z,53.38
2018-10-17T09:32:47.046Z,49.98
2018-10-17T09:35:15.373Z,49.41
2018-10-17T09:37:43.691Z,51.79
2018-10-17T09:40:12.244Z,52.23
2018-10-17T09:42:41.255Z,48.72
2018-10-17T09:45:10.567Z,48.98
2018-10-17T09:47:39.044Z,47.83
2018-10-17T09:50:08.374Z,47.56
2018-10-17T09:52:36.622Z,48.19
2018-10-17T09:55:05.374Z,46.24
2018-10-17T09:57:33.637Z,46.20
2018-10-17T10:00:02.191Z,48.97
2018-10-17T10:02:30.465Z,46.37
2018-10-17T10:04:58.711Z,44.20
2018-10-17T10:07:27.043Z,45.70
2018-10-17T10:09:55.519Z,44.37
2018-10-17T10:12:23.768Z,45.56
2018-10-17T10:14:52.137Z,45.10
2018-10-17T10:17:20.562Z,45.03
2018-10-17T10:19:48.728Z,43.51
2018-10-17T10:22:17.151Z,43.01
2018-10-17T10:24:45.415Z,45.36
2018-10-17T10:27:13.694Z,43.35
2018-10-17T10:29:42.024Z,44.99
2018-10-17T10:32:10.442Z,45.89
2018-10-17T10:34:38.758Z,43.72
2018-10-17T10:37:07.073Z,45.98
2018-10-17T10:39:35.514Z,42.81
2018-10-17T10:42:03.925Z,42.15
2018-10-17T10:44:32.181Z,44.22
2018-10-17T10:47:00.553Z,42.58
2018-10-17T10:49:29.240Z,43.40
2018-10-17T10:51:57.517Z,42.13
2018-10-17T10:54:25.817Z,44.39
2018-10-17T10:56:54.178Z,41.61
2018-10-17T10:59:22.692Z,43.20
2018-10-17T11:01:50.751Z,42.72
2018-10-17T11:04:19.066Z,41.91
2018-10-17T11:06:47.448Z,43.18
2018-10-17T11:09:15.825Z,42.24
2018-10-17T11:11:44.230Z,41.03
2018-10-17T11:14:12.730Z,41.57
2018-10-17T11:16:40.904Z,42.75
2018-10-17T11:19:09.173Z,41.49
2018-10-17T11:21:37.514Z,40.88
2018-10-17T11:24:06.014Z,40.62
2018-10-17T11:26:34.291Z,41.58
2018-10-17T11:29:02.711Z,39.64
2018-10-17T11:31:30.992Z,39.38
2018-10-17T11:33:59.240Z,39.43
2018-10-17T11:36:37.230Z,37.77
2018-10-17T11:39:07.836Z,37.93
2018-10-17T11:41:36.681Z,36.50
2018-10-17T11:44:05.023Z,36.03
2018-10-17T11:46:33.370Z,36.33
2018-10-17T11:49:01.788Z,35.04
2018-10-17T11:51:30.182Z,34.13
2018-10-17T11:53:58.731Z,33.38
2018-10-17T11:56:27.163Z,33.06
2018-10-17T11:58:55.546Z,33.30
2018-10-17T12:01:24.037Z,31.88
2018-10-17T12:03:52.634Z,31.90
2018-10-17T12:06:20.913Z,31.30
2018-10-17T12:08:49.485Z,29.07
2018-10-17T12:11:18.087Z,29.23
2018-10-17T12:13:46.331Z,29.40
2018-10-17T12:16:14.605Z,30.40
2018-10-17T12:18:42.893Z,30.20
2018-10-17T12:21:11.284Z,29.33
2018-10-17T12:23:39.723Z,29.14
2018-10-17T12:26:07.980Z,28.88
2018-10-17T12:28:36.469Z,30.21
2018-10-17T12:31:05.215Z,30.00
2018-10-17T12:33:33.494Z,29.35
2018-10-17T12:36:01.838Z,29.60
2018-10-17T12:38:30.365Z,28.82
2018-10-17T12:40:58.790Z,29.11
2018-10-17T12:43:27.055Z,29.60
2018-10-17T12:45:55.388Z,30.01
2018-10-17T12:48:23.750Z,30.13
2018-10-17T12:50:52.122Z,29.94
2018-10-17T12:53:20.588Z,30.10
2018-10-17T12:55:48.976Z,28.92
2018-10-17T12:58:17.390Z,28.11
2018-10-17T13:00:45.685Z,28.52
2018-10-17T13:03:13.997Z,28.30
2018-10-17T13:05:42.258Z,28.04
2018-10-17T13:08:10.547Z,26.52
2018-10-17T13:10:38.803Z,26.07
2018-10-17T13:13:07.299Z,26.22
2018-10-17T13:15:35.740Z,24.44
2018-10-17T13:18:04.258Z,24.54
2018-10-17T13:20:32.555Z,24.50
2018-10-17T13:23:01.139Z,25.45
2018-10-17T13:25:29.358Z,25.00
2018-10-17T13:27:57.694Z,24.23
2018-10-17T13:30:25.939Z,22.79
2018-10-17T13:32:54.237Z,23.86
2018-10-17T13:35:22.556Z,24.91
2018-10-17T13:37:50.836Z,25.90
2018-10-17T13:40:19.200Z,25.87
2018-10-17T13:42:47.481Z,26.46
2018-10-17T13:45:15.733Z,27.60
2018-10-17T13:49:13.218Z,27.57
2018-10-17T13:51:41.571Z,28.11
2018-10-17T13:54:09.859Z,27.13
2018-10-17T13:56:38.228Z,27.48
2018-10-17T13:59:06.637Z,28.26
2018-10-17T14:01:34.869Z,28.54
2018-10-17T14:04:03.305Z,29.51
2018-10-17T14:06:31.535Z,30.91
2018-10-17T14:08:59.835Z,30.70
2018-10-17T14:11:28.216Z,31.07
2018-10-17T14:13:56.419Z,31.73
2018-10-17T14:16:24.647Z,30.80
2018-10-17T14:18:53.049Z,30.28
2018-10-17T14:21:21.409Z,29.96
2018-10-17T14:23:49.681Z,29.72
2018-10-17T14:26:18.020Z,30.17
2018-10-17T14:28:46.310Z,30.55
2018-10-17T14:31:14.612Z,30.53
2018-10-17T14:33:42.963Z,30.28
2018-10-17T14:36:11.308Z,30.54
2018-10-17T14:38:39.590Z,30.45
2018-10-17T14:41:08.519Z,30.72
2018-10-17T14:43:36.904Z,30.33
2018-10-17T14:46:05.830Z,29.10
2018-10-17T14:48:34.182Z,28.69
2018-10-17T14:51:02.528Z,29.46
2018-10-17T14:53:30.756Z,29.67
2018-10-17T14:55:59.065Z,29.99
2018-10-17T14:58:27.270Z,29.97
2018-10-17T15:00:56.042Z,30.27
2018-10-17T15:03:24.459Z,30.71
2018-10-17T15:05:53.611Z,31.22
2018-10-17T15:08:22.321Z,31.29
2018-10-17T15:10:50.845Z,32.00
2018-10-17T15:13:18.963Z,32.41
2018-10-17T15:15:47.444Z,33.51
2018-10-17T15:18:16.442Z,34.76
2018-10-17T15:20:44.870Z,35.82
2018-10-17T15:23:13.685Z,36.62
2018-10-17T15:25:41.935Z,36.72
2018-10-17T15:28:10.294Z,37.14
2018-10-17T15:30:38.614Z,38.10
2018-10-17T15:33:06.968Z,38.57
2018-10-17T15:35:35.312Z,39.31
2018-10-17T15:38:03.940Z,39.52
2018-10-17T15:40:32.241Z,40.03
2018-10-17T15:43:00.646Z,40.79
2018-10-17T15:45:29.714Z,41.32
2018-10-17T15:47:58.668Z,41.43
2018-10-17T15:50:26.864Z,42.94
2018-10-17T15:52:55.274Z,41.87
2018-10-17T15:55:23.564Z,44.06
2018-10-17T15:57:51.938Z,45.31
2018-10-17T16:00:20.315Z,42.96
2018-10-17T16:02:48.592Z,44.67
2018-10-17T16:05:16.879Z,43.02
2018-10-17T16:07:45.195Z,44.43
2018-10-17T16:10:19.700Z,44.20
2018-10-17T16:12:47.996Z,44.28
2018-10-17T16:15:16.388Z,45.03
2018-10-17T16:17:44.699Z,45.68
2018-10-17T16:20:13.328Z,46.64
2018-10-17T16:22:42.163Z,47.02
2018-10-17T16:25:10.643Z,48.22
2018-10-17T16:27:39.340Z,47.84
2018-10-17T16:30:10.623Z,49.09
2018-10-17T16:32:39.742Z,49.47
2018-10-17T16:35:08.661Z,49.83
2018-10-17T16:37:37.958Z,50.77
2018-10-17T16:40:07.317Z,50.86
2018-10-17T16:42:35.629Z,51.61
2018-10-17T16:45:04.983Z,52.06
2018-10-17T16:47:33.444Z,52.04
2018-10-17T16:50:01.781Z,52.39
2018-10-17T16:52:30.108Z,53.09
2018-10-17T16:54:58.431Z,53.32
2018-10-17T16:57:26.858Z,53.77
2018-10-17T16:59:55.176Z,54.14
2018-10-17T17:02:23.466Z,54.48
2018-10-17T17:04:51.910Z,54.52
2018-10-17T17:07:20.297Z,54.93
2018-10-17T17:09:48.596Z,55.33
2018-10-17T17:12:17.062Z,55.57
2018-10-17T17:14:45.609Z,56.15
2018-10-17T17:17:13.892Z,56.49
2018-10-17T17:19:42.336Z,57.01
2018-10-17T17:22:11.213Z,57.03
2018-10-17T17:24:39.597Z,57.38
2018-10-17T17:27:08.095Z,57.70
2018-10-17T17:29:37.537Z,57.92
2018-10-17T17:32:06.498Z,58.25
2018-10-17T17:34:34.937Z,58.27
2018-10-17T17:37:03.254Z,58.63
2018-10-17T17:39:31.598Z,58.49
2018-10-17T17:41:59.908Z,58.62
2018-10-17T17:44:28.373Z,58.94
2018-10-17T17:46:56.700Z,59.47
2018-10-17T17:49:25.007Z,59.37
2018-10-17T17:51:53.314Z,59.90
2018-10-17T17:54:21.599Z,59.81
2018-10-17T17:56:50.017Z,60.19
2018-10-17T17:59:18.369Z,60.06
2018-10-17T18:01:46.656Z,60.47
2018-10-17T18:04:15.017Z,60.48
2018-10-17T18:06:43.777Z,60.87
2018-10-17T18:09:12.727Z,60.83
2018-10-17T18:11:41.732Z,61.59
2018-10-17T18:14:10.064Z,61.41
2018-10-17T18:16:38.618Z,61.45
2018-10-17T18:19:06.998Z,61.88
2018-10-17T18:21:35.439Z,61.49
2018-10-17T18:24:03.807Z,61.84
2018-10-17T18:26:32.115Z,61.84
2018-10-17T18:29:00.987Z,62.28
2018-10-17T18:31:29.279Z,62.39
2018-10-17T18:33:57.709Z,62.30
2018-10-17T18:36:26.069Z,62.51
2018-10-17T18:38:54.462Z,61.82
2018-10-17T18:41:22.851Z,62.13
2018-10-17T18:43:51.234Z,62.11
2018-10-17T18:46:19.498Z,62.17
2018-10-17T18:48:47.807Z,62.30
2018-10-17T18:51:16.166Z,62.26
2018-10-17T18:53:44.570Z,62.33
2018-10-17T18:56:12.953Z,62.81
2018-10-17T18:58:41.244Z,63.46
2018-10-17T19:01:10.172Z,63.39
2018-10-17T19:03:38.575Z,63.70
2018-10-17T19:06:06.871Z,64.13
2018-10-17T19:08:35.128Z,63.42
2018-10-17T19:11:03.514Z,63.95
2018-10-17T19:13:31.854Z,63.59
2018-10-17T19:16:00.287Z,63.67
2018-10-17T19:18:28.775Z,64.35
2018-10-17T19:20:57.110Z,64.76
2018-10-17T19:23:25.392Z,64.88
2018-10-17T19:25:53.911Z,65.45
2018-10-17T19:28:22.260Z,64.83
2018-10-17T19:30:50.709Z,64.98
2018-10-17T19:33:19.085Z,65.24
2018-10-17T19:35:47.461Z,65.35
2018-10-17T19:38:15.805Z,64.85
2018-10-17T19:40:44.471Z,64.80
2018-10-17T19:43:12.784Z,64.41
2018-10-17T19:45:41.168Z,64.23
2018-10-17T19:48:09.807Z,64.95
2018-10-17T19:50:38.678Z,64.96
2018-10-17T19:53:07.085Z,65.25
2018-10-17T19:55:35.517Z,65.61
2018-10-17T19:58:03.784Z,66.12
2018-10-17T20:00:32.232Z,66.50
2018-10-17T20:03:00.570Z,66.99
2018-10-17T20:05:28.988Z,67.46
2018-10-17T20:07:57.362Z,67.26
2018-10-17T20:10:25.710Z,67.37
2018-10-17T20:12:54.042Z,67.40
2018-10-17T20:15:22.363Z,68.05
2018-10-17T20:17:50.634Z,68.42
2018-10-17T20:20:18.905Z,68.22
2018-10-17T20:22:47.378Z,68.77
2018-10-17T20:25:17.150Z,67.84
2018-10-17T20:27:45.631Z,68.16
2018-10-17T20:30:14.062Z,68.57
2018-10-17T20:32:42.391Z,68.18
2018-10-17T20:35:11.046Z,68.36
2018-10-17T20:37:39.403Z,68.73
2018-10-17T20:40:07.803Z,69.60
2018-10-17T20:42:36.205Z,69.58
2018-10-17T20:45:05.037Z,69.59
2018-10-17T20:47:34.169Z,69.31
2018-10-17T20:50:02.790Z,69.85
2018-10-17T20:52:31.556Z,69.65
2018-10-17T20:54:59.898Z,70.09
2018-10-17T20:57:28.366Z,70.31
2018-10-17T20:59:56.715Z,70.33
2018-10-17T21:02:26.659Z,70.63
2018-10-17T21:04:54.964Z,70.30
2018-10-17T21:07:23.857Z,70.81
2018-10-17T21:09:52.210Z,70.62
2018-10-17T21:12:22.094Z,70.85
2018-10-17T21:14:50.584Z,71.28
2018-10-17T21:17:18.986Z,70.87
2018-10-17T21:19:47.813Z,71.09
2018-10-17T21:22:16.167Z,71.47
2018-10-17T21:24:44.677Z,71.40
2018-10-17T21:27:13.000Z,71.70
2018-10-17T21:29:41.488Z,72.11
2018-10-17T21:32:09.851Z,72.36
2018-10-17T21:34:38.111Z,72.54
2018-10-17T21:37:12.147Z,73.17
2018-10-17T21:39:40.458Z,73.48
2018-10-17T21:42:08.748Z,74.39
2018-10-17T21:44:37.276Z,74.49
2018-10-17T21:47:06.135Z,74.71
2018-10-17T21:49:34.542Z,75.30
2018-10-17T21:52:02.880Z,75.01
2018-10-17T21:54:32.134Z,74.85
2018-10-17T21:57:01.144Z,75.40
2018-10-17T21:59:29.600Z,76.04
2018-10-17T22:01:57.989Z,77.00
2018-10-17T22:04:26.402Z,77.42
2018-10-17T22:06:54.756Z,78.26
2018-10-17T22:09:24.201Z,78.47
2018-10-17T22:11:52.688Z,78.65
2018-10-17T22:14:20.967Z,78.17
2018-10-17T22:16:54.472Z,79.08
2018-10-17T22:19:23.004Z,79.86
2018-10-17T22:21:51.115Z,80.18
2018-10-17T22:24:19.423Z,80.11
2018-10-17T22:26:47.868Z,80.60
2018-10-17T22:29:16.136Z,80.55
2018-10-17T22:31:44.478Z,80.78
2018-10-17T22:34:12.798Z,81.96
2018-10-17T22:36:41.083Z,81.57
2018-10-17T22:39:13.914Z,82.20
2018-10-17T22:41:42.901Z,82.77
2018-10-17T22:44:11.672Z,82.83
2018-10-17T22:46:39.888Z,83.96
2018-10-17T22:49:09.259Z,83.43
2018-10-17T22:51:38.170Z,83.43
2018-10-17T22:54:07.308Z,83.82
2018-10-17T22:56:37.496Z,84.84
2018-10-17T22:59:06.254Z,84.78
2018-10-17T23:01:34.577Z,84.78
2018-10-17T23:04:02.859Z,85.83
2018-10-17T23:06:31.285Z,85.90
2018-10-17T23:08:59.623Z,85.84
2018-10-17T23:11:27.924Z,85.75
2018-10-17T23:13:56.341Z,85.55
2018-10-17T23:16:24.579Z,85.59
2018-10-17T23:18:52.902Z,85.17
2018-10-17T23:21:21.288Z,85.11
2018-10-17T23:23:49.721Z,85.56
2018-10-17T23:26:18.016Z,86.19
2018-10-17T23:28:46.391Z,86.07
2018-10-17T23:31:14.639Z,86.27
2018-10-17T23:33:42.941Z,86.42
2018-10-17T23:36:11.309Z,86.55
2018-10-17T23:38:39.611Z,85.99
2018-10-17T23:41:08.015Z,86.16
2018-10-17T23:43:36.242Z,86.65
2018-10-17T23:46:04.659Z,87.22
2018-10-17T23:48:32.976Z,87.06
2018-10-17T23:51:01.234Z,87.19
2018-10-17T23:53:30.420Z,87.71
2018-10-17T23:55:58.723Z,87.46
2018-10-17T23:58:27.033Z,87.25
